Weather at Mactan Cebu International Airport

Public forecast

Using degrees Celsius for public forecast. Weather courtesy of forecast.io.

Current aviation weather report (METAR) for Mactan Cebu International Airport

Retrieved 2021/10/23 03:00 UTC (45 minutes ago):

RPVM 230300Z 04008KT 9999 FEW020 BKN100 28/24 Q1011 RMK A2985

Aviation forecast (TAF) for Mactan Cebu International Airport

Retrieved 2021-10-23 00:21 UTC (3 hours ago):

TAF RPVM 222300Z 2300/2406 05006KT 9999 FEW020 BKN300 TEMPO 2300/2306 12009KT 9000 -RA SCT020 BKN100 TEMPO 2306/2312 11008KT FEW018CB BKN100